Time;durP1;ratioP1;P1;durP2;ratioP2;P2;SDS_P1;SDS_P2;PMS_P1;PMS_P2;Temp;Humidity;BMP_temperature;BMP_pressure;BME280_temperature;BME280_humidity;BME280_pressure;Samples;Min_cycle;Max_cycle;Signal;HPM_P1;HPM_P2
2020/12/14 00:00:13;;;;;;;14.27;11.30;;;4.60;99.90;;;5.26;100.00;100032.66;4734097;30;20271;-61
2020/12/14 00:02:41;;;;;;;16.43;12.43;;;4.50;99.90;;;5.34;100.00;100025.34;4734392;30;20262;-61
2020/12/14 00:05:10;;;;;;;14.60;11.47;;;4.40;99.90;;;5.33;100.00;100034.34;4734082;30;20298;-61
2020/12/14 00:07:38;;;;;;;14.60;11.00;;;4.40;99.90;;;5.30;100.00;100037.41;4734004;30;20687;-60
2020/12/14 00:10:07;;;;;;;13.57;10.77;;;4.40;99.90;;;5.46;100.00;100041.69;4734363;30;20250;-61
2020/12/14 00:12:35;;;;;;;13.90;11.40;;;4.40;99.90;;;5.17;100.00;100041.78;4734090;30;20297;-61
2020/12/14 00:15:03;;;;;;;14.80;11.40;;;4.40;99.90;;;4.92;100.00;100054.63;4734144;30;20251;-60
2020/12/14 00:17:33;;;;;;;13.73;11.13;;;4.30;99.90;;;4.94;100.00;100065.91;4733985;30;20655;-60
2020/12/14 00:20:00;;;;;;;15.40;12.17;;;4.20;99.90;;;5.11;100.00;100056.69;4734027;30;20328;-59
2020/12/14 00:22:32;;;;;;;15.20;12.10;;;4.20;99.90;;;5.03;100.00;100070.16;4733951;30;20258;-60
2020/12/14 00:25:00;;;;;;;14.00;12.00;;;4.20;99.90;;;4.94;100.00;100074.75;4733763;30;20594;-60
2020/12/14 00:27:27;;;;;;;16.77;13.37;;;4.10;99.90;;;5.16;100.00;100075.66;4733685;30;20623;-59
2020/12/14 00:29:54;;;;;;;15.00;12.57;;;4.10;99.90;;;5.20;100.00;100068.09;4734015;30;20235;-60
2020/12/14 00:32:23;;;;;;;14.33;12.70;;;4.30;99.90;;;5.28;100.00;100071.47;4733704;30;20263;-60
2020/12/14 00:34:52;;;;;;;15.23;12.27;;;4.30;99.90;;;5.54;100.00;100074.47;4734003;30;20212;-61
2020/12/14 00:37:20;;;;;;;13.33;11.17;;;4.40;99.90;;;5.18;100.00;100072.78;4733795;30;20228;-61
2020/12/14 00:39:48;;;;;;;13.23;11.57;;;4.30;99.90;;;4.84;100.00;100081.38;4733481;30;20719;-60
2020/12/14 00:42:15;;;;;;;14.17;11.70;;;4.20;99.90;;;4.89;100.00;100090.50;4733405;30;20585;-60
2020/12/14 00:44:42;;;;;;;15.43;13.23;;;4.10;99.90;;;5.29;100.00;100078.50;4733845;30;20262;-60
2020/12/14 00:47:09;;;;;;;17.33;15.00;;;4.20;99.90;;;5.24;100.00;100086.25;4733611;30;20251;-60
2020/12/14 00:49:36;;;;;;;15.63;13.20;;;4.20;99.90;;;5.43;100.00;100079.47;4733549;30;20686;-61
2020/12/14 00:52:05;;;;;;;16.47;13.43;;;4.30;99.90;;;5.40;100.00;100085.16;4733571;30;20253;-60
2020/12/14 00:54:33;;;;;;;13.47;11.70;;;4.40;99.90;;;5.19;100.00;100079.81;4733363;30;20767;-60
2020/12/14 00:57:00;;;;;;;14.40;12.00;;;4.30;99.90;;;5.05;100.00;100083.31;4733198;30;20307;-59
2020/12/14 00:59:27;;;;;;;11.87;10.17;;;4.20;99.90;;;5.12;100.00;100084.22;4733334;30;20235;-60
2020/12/14 01:01:55;;;;;;;12.87;11.30;;;4.20;99.90;;;5.10;100.00;100080.91;4733570;30;20250;-59
2020/12/14 01:04:23;;;;;;;13.70;11.17;;;4.10;99.90;;;5.01;100.00;100082.84;4733544;30;20220;-61
2020/12/14 01:06:52;;;;;;;14.07;11.07;;;4.00;99.90;;;4.78;100.00;100092.81;4733363;30;20291;-60
2020/12/14 01:09:21;;;;;;;11.93;10.23;;;4.00;99.90;;;4.84;100.00;100081.38;4733309;30;20685;-60
2020/12/14 01:11:48;;;;;;;12.63;10.43;;;3.90;99.90;;;5.18;100.00;100094.97;4733621;30;20347;-61
2020/12/14 01:14:15;;;;;;;13.03;10.40;;;4.10;99.90;;;5.38;100.00;100085.38;4733554;30;20304;-61
2020/12/14 01:16:42;;;;;;;12.40;10.57;;;4.20;99.90;;;5.69;100.00;100090.44;4733220;30;20630;-60
2020/12/14 01:19:10;;;;;;;12.63;10.37;;;4.40;99.90;;;5.42;100.00;100091.16;4733176;30;20833;-61
2020/12/14 01:21:37;;;;;;;10.40;8.83;;;4.40;99.90;;;5.12;100.00;100092.25;4733368;30;20586;-60
2020/12/14 01:24:04;;;;;;;11.80;9.90;;;4.30;99.90;;;5.20;100.00;100100.97;4733472;30;20214;-59
2020/12/14 01:26:32;;;;;;;12.00;10.00;;;4.20;99.90;;;5.23;100.00;100091.75;4733312;30;20246;-59
2020/12/14 01:29:00;;;;;;;12.50;9.77;;;4.20;99.90;;;5.42;100.00;100092.00;4733383;30;20222;-60
2020/12/14 01:31:27;;;;;;;10.93;9.27;;;4.30;99.90;;;5.17;100.00;100076.47;4733333;30;20291;-60
2020/12/14 01:33:55;;;;;;;11.83;9.63;;;4.30;99.90;;;4.99;100.00;100076.88;4733288;30;20215;-60
2020/12/14 01:36:22;;;;;;;12.70;10.63;;;4.10;99.90;;;4.92;100.00;100066.09;4733250;30;20304;-59
2020/12/14 01:38:49;;;;;;;11.90;9.40;;;4.10;99.90;;;4.63;100.00;100065.31;4733077;30;20303;-59
2020/12/14 01:41:17;;;;;;;11.90;9.60;;;4.00;99.90;;;4.67;100.00;100055.91;4733219;30;20242;-60
2020/12/14 01:43:45;;;;;;;11.97;9.57;;;3.90;99.90;;;4.74;100.00;100049.66;4733317;30;20208;-60
2020/12/14 01:46:12;;;;;;;10.93;9.37;;;3.90;99.90;;;4.71;100.00;100052.72;4733278;30;20219;-58
2020/12/14 01:48:41;;;;;;;12.60;9.50;;;3.90;99.90;;;4.79;100.00;100055.28;4732888;30;20258;-60
2020/12/14 01:51:09;;;;;;;13.37;10.00;;;3.90;99.90;;;4.97;100.00;100058.38;4733062;30;20222;-60
2020/12/14 01:53:41;;;;;;;10.90;9.07;;;4.00;99.90;;;5.10;100.00;100054.22;4733260;30;20243;-59
2020/12/14 01:56:08;;;;;;;13.23;9.73;;;4.10;99.90;;;5.13;100.00;100054.66;4732782;30;20197;-59
2020/12/14 01:58:36;;;;;;;12.13;9.53;;;4.20;99.90;;;5.09;100.00;100061.38;4733148;30;20255;-59
2020/12/14 02:01:04;;;;;;;10.93;9.37;;;4.20;99.90;;;5.19;100.00;100053.94;4733052;30;20297;-60
2020/12/14 02:03:31;;;;;;;11.57;9.20;;;4.20;99.90;;;5.21;100.00;100059.91;4733088;30;20223;-59
2020/12/14 02:05:59;;;;;;;12.20;9.53;;;4.30;99.90;;;5.31;100.00;100052.41;4735286;30;20211;-60
2020/12/14 02:08:26;;;;;;;9.47;8.47;;;4.30;99.90;;;5.23;100.00;100057.03;4736305;30;20332;-61
2020/12/14 02:10:53;;;;;;;10.10;9.03;;;4.40;99.90;;;5.33;100.00;100058.41;4735794;30;20207;-59
2020/12/14 02:13:21;;;;;;;10.10;9.03;;;4.40;99.90;;;5.50;100.00;100061.66;4736158;30;20242;-61
2020/12/14 02:15:48;;;;;;;10.93;9.37;;;4.50;99.90;;;5.52;100.00;100067.63;4735923;30;20251;-61
2020/12/14 02:18:17;;;;;;;9.70;8.43;;;4.50;99.90;;;5.48;100.00;100067.19;4736157;30;20217;-59
2020/12/14 02:20:44;;;;;;;10.93;8.50;;;4.50;99.90;;;5.46;100.00;100071.91;4735952;30;20330;-60
2020/12/14 02:23:11;;;;;;;8.93;7.80;;;4.50;99.90;;;5.36;100.00;100073.22;4735934;30;20311;-60
2020/12/14 02:25:39;;;;;;;8.77;7.77;;;4.50;99.90;;;5.44;100.00;100081.97;4735847;30;20215;-60
2020/12/14 02:28:07;;;;;;;9.23;8.23;;;4.50;99.90;;;5.44;100.00;100081.13;4735540;30;20307;-59
2020/12/14 02:30:34;;;;;;;9.67;8.00;;;4.50;99.90;;;5.58;100.00;100073.03;4735558;30;20737;-59
2020/12/14 02:33:01;;;;;;;9.73;8.73;;;4.50;99.90;;;5.62;100.00;100078.84;4735936;30;20239;-59
2020/12/14 02:35:28;;;;;;;8.17;7.03;;;4.50;99.90;;;5.62;100.00;100069.00;4735699;30;20295;-61
2020/12/14 02:37:55;;;;;;;8.53;7.60;;;4.60;99.90;;;5.54;100.00;100074.47;4735812;30;20216;-60
2020/12/14 02:40:23;;;;;;;8.97;8.03;;;4.50;99.90;;;5.56;100.00;100066.25;4735845;30;20326;-60
2020/12/14 02:42:51;;;;;;;8.60;7.70;;;4.50;99.90;;;5.45;100.00;100064.06;4735517;30;20285;-60
2020/12/14 02:45:18;;;;;;;9.77;7.60;;;4.50;99.90;;;5.45;100.00;100050.72;4735721;30;20299;-60
2020/12/14 02:47:45;;;;;;;8.53;7.60;;;4.50;99.90;;;5.48;100.00;100061.03;4735198;30;20746;-59
2020/12/14 02:50:12;;;;;;;8.07;7.23;;;4.50;99.90;;;5.56;100.00;100056.41;4735274;30;20212;-61
2020/12/14 02:52:40;;;;;;;9.17;7.23;;;4.60;99.90;;;5.64;100.00;100050.09;4735406;30;20244;-61
2020/12/14 02:55:07;;;;;;;7.77;6.93;;;4.60;99.90;;;5.91;100.00;100054.69;4735170;30;20699;-60
2020/12/14 02:57:34;;;;;;;7.80;6.77;;;4.70;99.90;;;5.84;100.00;100051.13;4735405;30;20214;-60
2020/12/14 03:00:04;;;;;;;7.87;7.07;;;4.80;99.90;;;5.76;100.00;100056.59;4735069;30;20327;-60
2020/12/14 03:02:32;;;;;;;7.40;6.50;;;4.80;99.90;;;5.81;100.00;100051.50;4735181;30;20297;-60
2020/12/14 03:04:59;;;;;;;8.10;6.57;;;4.80;99.90;;;5.70;100.00;100065.38;4735115;30;20266;-60
2020/12/14 03:07:26;;;;;;;7.87;6.87;;;4.80;99.90;;;6.36;100.00;100056.91;4735210;30;20269;-61
2020/12/14 03:09:54;;;;;;;8.40;7.13;;;5.00;99.90;;;6.31;100.00;100059.34;4735279;30;20296;-60
2020/12/14 03:12:21;;;;;;;7.67;6.60;;;5.20;99.90;;;6.06;100.00;100055.44;4734711;30;20479;-59
2020/12/14 03:14:48;;;;;;;8.23;7.30;;;5.10;99.90;;;6.00;100.00;100042.88;4735213;30;20212;-61
2020/12/14 03:17:16;;;;;;;7.23;6.30;;;5.10;99.90;;;5.83;100.00;100033.47;4733863;30;20667;-59
2020/12/14 03:19:44;;;;;;;9.37;6.90;;;5.10;99.90;;;5.84;100.00;100027.09;4734952;30;20322;-60
2020/12/14 03:22:11;;;;;;;8.03;7.00;;;5.00;99.90;;;5.85;100.00;100023.41;4734871;30;20311;-61
2020/12/14 03:24:38;;;;;;;7.57;6.70;;;5.00;99.90;;;5.86;100.00;100017.03;4734658;30;20263;-60
2020/12/14 03:27:05;;;;;;;8.07;6.70;;;5.00;99.90;;;6.09;100.00;100006.91;4734637;30;20575;-59
2020/12/14 03:29:32;;;;;;;8.70;6.50;;;5.00;99.90;;;5.99;100.00;100009.94;4734576;30;20226;-73
2020/12/14 03:32:00;;;;;;;7.67;6.97;;;5.10;99.90;;;5.96;100.00;100018.34;4734535;30;20735;-74
2020/12/14 03:34:28;;;;;;;7.80;7.00;;;5.10;99.90;;;5.99;100.00;100022.47;4734857;30;20215;-75
2020/12/14 03:36:57;;;;;;;7.27;6.50;;;5.00;99.90;;;6.37;100.00;100015.78;4734724;30;20220;-74
2020/12/14 03:39:24;;;;;;;8.27;6.70;;;5.10;99.90;;;6.16;100.00;100016.66;4734401;30;20322;-74
2020/12/14 03:41:51;;;;;;;6.90;6.17;;;5.20;99.90;;;6.06;100.00;100016.19;4734621;30;20238;-73
2020/12/14 03:44:19;;;;;;;7.47;6.47;;;5.10;99.90;;;5.76;100.00;100014.66;4734706;30;20220;-74
2020/12/14 03:46:46;;;;;;;7.77;6.40;;;5.00;99.90;;;5.73;100.00;100016.88;4734360;30;20216;-73
2020/12/14 03:49:13;;;;;;;7.87;6.70;;;4.90;99.90;;;5.77;100.00;100012.78;4734182;30;20267;-73
2020/12/14 03:51:42;;;;;;;7.47;6.67;;;4.90;99.90;;;5.86;100.00;100003.66;4734083;30;20259;-74
2020/12/14 03:54:09;;;;;;;7.30;6.50;;;4.90;99.90;;;5.54;100.00;100006.84;4734584;30;20311;-59
2020/12/14 03:56:36;;;;;;;7.43;6.60;;;4.80;99.90;;;5.43;100.00;100008.16;4734072;30;20309;-61
2020/12/14 03:59:03;;;;;;;7.23;6.53;;;4.70;99.90;;;5.27;100.00;99999.59;4734366;30;20312;-60
2020/12/14 04:01:30;;;;;;;7.40;6.63;;;4.60;99.90;;;5.29;100.00;99989.53;4734080;30;20623;-60
2020/12/14 04:03:58;;;;;;;8.20;6.97;;;4.50;99.90;;;5.27;100.00;99991.56;4734006;30;20753;-61
2020/12/14 04:06:26;;;;;;;8.10;7.30;;;4.50;99.90;;;5.08;100.00;99998.34;4733869;30;20633;-60
2020/12/14 04:08:55;;;;;;;8.60;7.73;;;4.40;99.90;;;5.12;100.00;99993.47;4733938;30;20228;-59
2020/12/14 04:11:22;;;;;;;8.70;7.73;;;4.30;99.90;;;5.06;100.00;100002.25;4734093;30;20291;-60
2020/12/14 04:13:51;;;;;;;8.57;7.27;;;4.20;99.90;;;5.04;100.00;99998.91;4734138;30;20216;-59
2020/12/14 04:16:19;;;;;;;7.90;7.10;;;4.20;99.90;;;4.95;100.00;100004.34;4734139;30;20219;-60
2020/12/14 04:18:49;;;;;;;9.77;7.90;;;4.20;99.90;;;4.99;100.00;99999.47;4733808;30;20724;-60
2020/12/14 04:21:18;;;;;;;8.50;7.10;;;4.10;99.90;;;5.01;100.00;99999.31;4733601;30;20326;-60
2020/12/14 04:23:45;;;;;;;8.97;7.87;;;4.10;99.90;;;5.17;100.00;99999.91;4733731;30;20576;-60
2020/12/14 04:26:15;;;;;;;10.33;8.00;;;4.20;99.90;;;5.07;100.00;100002.03;4733904;30;20312;-60
2020/12/14 04:28:42;;;;;;;9.43;8.00;;;4.20;99.90;;;5.28;100.00;100001.22;4733680;30;20215;-60
2020/12/14 04:31:09;;;;;;;8.80;7.90;;;4.30;99.90;;;5.22;100.00;100004.66;4733914;30;20252;-61
2020/12/14 04:33:38;;;;;;;8.43;7.43;;;4.40;99.90;;;5.61;100.00;99997.88;4733620;30;20250;-60
2020/12/14 04:36:06;;;;;;;7.80;6.97;;;4.50;99.90;;;6.25;100.00;100016.50;4733450;30;20368;-60
2020/12/14 04:38:34;;;;;;;8.47;6.67;;;4.80;99.90;;;6.31;100.00;100027.25;4733557;30;20598;-60
2020/12/14 04:41:03;;;;;;;7.83;7.03;;;5.10;99.90;;;6.08;100.00;100027.50;4733483;30;20357;-60
2020/12/14 04:43:31;;;;;;;8.00;7.00;;;5.20;99.90;;;6.09;100.00;100013.09;4733802;30;20209;-60
2020/12/14 04:46:02;;;;;;;8.27;7.20;;;5.20;99.90;;;6.10;100.00;100019.28;4733430;30;20750;-60
2020/12/14 04:48:31;;;;;;;8.37;7.27;;;5.30;99.90;;;5.95;100.00;100018.56;4733434;30;20252;-60
2020/12/14 04:51:00;;;;;;;9.83;7.50;;;5.20;99.90;;;5.92;100.00;100018.91;4733585;30;20299;-60
2020/12/14 04:53:27;;;;;;;8.60;7.37;;;5.20;99.90;;;5.84;100.00;100022.56;4733644;30;20216;-60
2020/12/14 04:55:58;;;;;;;8.00;7.20;;;5.20;99.90;;;5.90;100.00;100021.78;4733687;30;20311;-60
2020/12/14 04:58:26;;;;;;;8.30;7.30;;;5.10;99.90;;;5.85;100.00;100020.75;4733581;30;20223;-62
2020/12/14 05:00:54;;;;;;;7.23;6.53;;;5.10;99.90;;;6.16;100.00;100016.66;4733182;30;20327;-59
2020/12/14 05:03:21;;;;;;;8.27;6.63;;;5.10;99.90;;;6.13;100.00;100010.88;4733580;30;20215;-60
2020/12/14 05:05:55;;;;;;;7.43;6.53;;;5.20;99.90;;;5.90;100.00;100005.75;4733417;30;20243;-61
2020/12/14 05:08:26;;;;;;;6.57;5.87;;;5.10;99.90;;;5.78;100.00;100011.78;4733370;30;20655;-60
2020/12/14 05:10:54;;;;;;;6.73;6.00;;;5.10;99.90;;;6.22;100.00;100002.50;4733229;30;20283;-59
2020/12/14 05:13:26;;;;;;;7.60;6.07;;;5.10;99.90;;;6.02;100.00;100009.56;4733525;30;20248;-60
2020/12/14 05:15:56;;;;;;;6.70;5.87;;;5.10;99.90;;;6.48;100.00;100003.72;4733519;30;20290;-60
2020/12/14 05:18:23;;;;;;;6.27;5.50;;;5.30;99.90;;;6.26;100.00;100012.81;4733232;30;20216;-74
2020/12/14 05:20:59;;;;;;;6.13;5.53;;;5.20;99.90;;;6.54;100.00;100014.44;4732974;30;20236;-74
2020/12/14 05:23:27;;;;;;;6.03;5.43;;;5.40;99.90;;;6.45;100.00;100006.75;4733385;30;20247;-74
2020/12/14 05:26:08;;;;;;;5.47;4.93;;;5.40;99.90;;;6.13;100.00;100016.22;4733331;30;20208;-75
2020/12/14 05:28:36;;;;;;;5.90;5.10;;;5.40;99.90;;;6.27;100.00;100023.31;4733358;30;20258;-74
2020/12/14 05:31:04;;;;;;;5.90;4.83;;;5.30;99.90;;;6.27;100.00;100017.13;4733378;30;20208;-74
2020/12/14 05:33:33;;;;;;;5.37;4.87;;;5.30;99.90;;;6.34;100.00;100026.03;4733374;30;20251;-75
2020/12/14 05:36:00;;;;;;;6.17;4.97;;;5.40;99.90;;;6.18;100.00;100022.66;4733264;30;20296;-74
2020/12/14 05:38:30;;;;;;;5.77;5.17;;;5.30;99.90;;;6.54;100.00;100024.31;4733113;30;20311;-75
2020/12/14 05:40:59;;;;;;;4.80;4.40;;;5.50;99.90;;;6.26;100.00;100031.56;4735395;30;20591;-73
2020/12/14 05:43:29;;;;;;;5.60;5.10;;;5.50;99.90;;;6.26;100.00;100020.84;4736481;30;20209;-73
2020/12/14 05:46:11;;;;;;;6.00;4.60;;;5.40;99.90;;;5.98;100.00;100019.00;4736664;30;20212;-74
2020/12/14 05:48:39;;;;;;;5.07;4.43;;;5.30;99.90;;;6.32;100.00;100020.88;4736215;30;20318;-74
2020/12/14 05:51:08;;;;;;;4.80;4.03;;;5.40;99.90;;;6.08;100.00;100019.50;4736043;30;20327;-75
2020/12/14 05:53:38;;;;;;;5.63;4.70;;;5.30;99.90;;;6.12;100.00;100026.06;4736268;30;20688;-74
2020/12/14 05:56:08;;;;;;;4.63;4.23;;;5.30;99.90;;;6.31;100.00;100021.09;4736199;30;20216;-74
2020/12/14 05:58:38;;;;;;;5.00;4.50;;;5.30;99.90;;;6.24;100.00;100023.69;4736577;30;20208;-74
2020/12/14 06:01:07;;;;;;;5.20;4.70;;;5.30;99.90;;;6.15;100.00;100020.38;4736231;30;20299;-74
2020/12/14 06:03:36;;;;;;;5.13;4.43;;;5.30;99.90;;;6.23;100.00;100016.69;4736058;30;20213;-74
2020/12/14 06:06:08;;;;;;;5.13;4.63;;;5.30;99.90;;;6.23;100.00;100022.06;4736105;30;20314;-73
2020/12/14 06:09:03;;;;;;;4.93;4.43;;;5.30;99.90;;;6.35;100.00;100017.81;4736248;30;20200;-74
2020/12/14 06:11:34;;;;;;;5.07;4.57;;;5.40;99.90;;;6.40;100.00;100020.72;4736114;30;20275;-74
2020/12/14 06:14:02;;;;;;;5.53;4.97;;;5.50;99.90;;;6.37;100.00;100031.00;4735935;30;20216;-75
2020/12/14 06:16:34;;;;;;;4.90;4.00;;;5.50;99.90;;;6.50;100.00;100028.41;4736208;30;20251;-75
2020/12/14 06:19:04;;;;;;;4.87;4.37;;;5.50;99.90;;;6.51;100.00;100022.84;4736753;30;20240;-75
2020/12/14 06:21:38;;;;;;;4.83;4.43;;;5.60;99.90;;;6.33;100.00;100019.03;4736230;30;20317;-74
2020/12/14 06:24:15;;;;;;;5.60;4.80;;;5.50;99.90;;;6.48;100.00;100023.25;4736044;30;20664;-74
2020/12/14 06:26:46;;;;;;;4.93;4.43;;;5.50;99.90;;;6.40;100.00;100020.72;4736028;30;20286;-74
2020/12/14 06:29:30;;;;;;;5.00;4.50;;;5.50;99.90;;;6.42;100.00;100020.53;4736024;30;20200;-75
2020/12/14 06:31:58;;;;;;;5.07;4.43;;;5.40;99.90;;;6.38;100.00;100025.44;4734769;30;20330;-75
2020/12/14 06:34:40;;;;;;;4.87;4.37;;;5.50;99.90;;;6.39;100.00;100016.41;4735899;30;20213;-74
2020/12/14 06:37:08;;;;;;;5.03;4.53;;;5.50;99.90;;;6.27;100.00;100020.66;4735355;30;20213;-73
2020/12/14 06:39:40;;;;;;;6.20;4.57;;;5.40;99.90;;;6.12;100.00;100022.59;4735810;30;20330;-74
2020/12/14 06:42:24;;;;;;;5.37;4.67;;;5.40;99.90;;;6.18;100.00;100025.31;4735730;30;20251;-75
2020/12/14 06:45:09;;;;;;;4.77;4.37;;;5.30;99.90;;;6.20;100.00;100014.44;4735797;30;20236;-75
2020/12/14 06:47:57;;;;;;;5.03;4.53;;;5.20;99.90;;;6.20;100.00;100022.44;4735401;30;20271;-74
2020/12/14 06:50:32;;;;;;;5.27;4.77;;;5.30;99.90;;;6.30;100.00;100011.41;4735103;30;20660;-75
2020/12/14 06:53:01;;;;;;;5.13;4.63;;;5.30;99.90;;;6.07;100.00;100007.13;4734970;30;20227;-75
2020/12/14 06:55:47;;;;;;;4.87;4.47;;;5.30;99.90;;;5.89;100.00;100009.47;4735127;30;20220;-75
2020/12/14 06:58:35;;;;;;;4.73;4.33;;;5.10;99.90;;;6.08;100.00;100007.97;4735938;30;20317;-75
2020/12/14 07:01:04;;;;;;;6.50;4.50;;;5.10;99.90;;;6.04;100.00;100012.88;4735258;30;20260;-75
2020/12/14 07:03:36;;;;;;;4.77;4.33;;;5.10;99.90;;;6.05;100.00;100006.47;4735270;30;20216;-75
2020/12/14 07:06:06;;;;;;;6.37;4.87;;;5.10;99.90;;;6.03;100.00;100008.56;4734874;30;20668;-74
2020/12/14 07:08:38;;;;;;;5.07;4.57;;;5.10;99.90;;;5.87;100.00;100010.66;4735145;30;20284;-74
2020/12/14 07:11:18;;;;;;;8.67;5.40;;;5.00;99.90;;;6.04;100.00;100002.16;4735133;30;20193;-75
2020/12/14 07:13:47;;;;;;;4.93;4.43;;;5.10;99.90;;;6.25;100.00;100003.13;4735166;30;20266;-75
2020/12/14 07:16:17;;;;;;;6.60;4.30;;;5.10;99.90;;;6.13;100.00;99994.81;4735106;30;20223;-75
2020/12/14 07:18:48;;;;;;;5.20;4.70;;;5.20;99.90;;;6.13;100.00;100008.19;4735089;30;20360;-74
2020/12/14 07:21:17;;;;;;;6.63;4.40;;;5.20;99.90;;;6.30;100.00;100014.91;4734587;30;20270;-75
2020/12/14 07:23:47;;;;;;;6.40;4.27;;;5.20;99.90;;;6.59;100.00;100017.34;4735329;30;20217;-75
2020/12/14 07:26:16;;;;;;;4.53;4.13;;;5.40;99.90;;;6.50;100.00;100018.53;4734672;30;20635;-74
2020/12/14 07:28:47;;;;;;;5.33;4.00;;;5.50;99.90;;;6.61;100.00;100015.31;4734663;30;20219;-74
2020/12/14 07:31:19;;;;;;;5.17;3.90;;;5.50;99.90;;;6.40;100.00;100015.38;4734908;30;20217;-74
2020/12/14 07:33:53;;;;;;;4.83;4.17;;;5.50;99.90;;;6.43;100.00;100017.66;4734913;30;20340;-74
2020/12/14 07:36:22;;;;;;;5.00;4.20;;;5.50;99.90;;;6.57;100.00;100023.91;4734804;30;20795;-75
2020/12/14 07:38:53;;;;;;;4.93;4.43;;;5.60;99.90;;;6.46;100.00;100021.81;4734704;30;20315;-74
2020/12/14 07:41:21;;;;;;;4.70;4.20;;;5.60;99.90;;;6.53;100.00;100022.66;4729065;30;20448;-76
2020/12/14 07:43:54;;;;;;;4.40;4.00;;;5.60;99.90;;;6.42;100.00;100021.38;4731795;30;20244;-75
2020/12/14 07:46:28;;;;;;;4.03;3.67;;;5.60;99.90;;;6.41;100.00;100019.69;4734128;30;20657;-74
2020/12/14 07:49:05;;;;;;;4.33;3.83;;;5.60;99.90;;;6.56;100.00;100025.75;4733927;30;20243;-69
2020/12/14 07:51:36;;;;;;;4.43;4.03;;;5.60;99.90;;;6.63;100.00;100029.28;4733816;30;20285;-69
2020/12/14 07:54:11;;;;;;;4.33;3.93;;;5.70;99.90;;;7.05;98.35;100020.25;4748652;30;20644;-68
2020/12/14 07:56:44;;;;;;;4.47;3.97;;;5.80;99.90;;;7.12;97.94;100023.78;4748593;30;20286;-70
2020/12/14 07:59:23;;;;;;;4.23;3.83;;;5.90;99.90;;;6.77;99.23;100025.69;4749101;30;20290;-69
2020/12/14 08:01:51;;;;;;;5.00;4.53;;;5.90;99.90;;;6.77;99.72;100033.72;4739721;30;20272;-69
2020/12/14 08:04:36;;;;;;;4.90;4.37;;;5.90;99.90;;;6.68;100.00;100021.50;4730581;30;20623;-67
2020/12/14 08:07:09;;;;;;;4.30;3.90;;;5.90;99.90;;;7.19;97.67;100029.97;4730819;30;20247;-77
2020/12/14 08:09:45;;;;;;;5.47;4.30;;;6.00;99.90;;;7.07;97.28;100029.72;4731209;30;20240;-75
2020/12/14 08:12:15;;;;;;;4.40;3.97;;;6.10;99.90;;;7.12;96.59;100027.25;4731192;30;20197;-75
2020/12/14 08:14:47;;;;;;;5.83;4.60;;;6.10;99.90;;;7.24;95.81;100030.19;4730610;30;20220;-76
2020/12/14 08:17:15;;;;;;;4.63;4.23;;;6.20;99.90;;;7.04;97.64;100024.78;4730490;30;20228;-75
2020/12/14 08:19:44;;;;;;;4.73;4.20;;;6.20;99.90;;;7.22;96.96;100029.59;4730830;30;20274;-76
2020/12/14 08:22:13;;;;;;;4.47;4.07;;;6.20;99.90;;;7.11;96.62;100027.47;4730038;30;20233;-74
2020/12/14 08:24:42;;;;;;;4.73;4.23;;;6.20;99.90;;;7.14;97.21;100033.25;4731103;30;20304;-75
2020/12/14 08:27:12;;;;;;;6.27;4.40;;;6.20;99.90;;;7.52;95.39;100032.75;4730155;30;20578;-73
2020/12/14 08:30:00;;;;;;;5.00;4.50;;;6.30;99.90;;;7.43;95.06;100032.94;4730638;30;20288;-73
2020/12/14 08:32:27;;;;;;;5.50;4.17;;;6.30;99.90;;;7.45;95.48;100027.38;4730186;30;20288;-72
2020/12/14 08:34:54;;;;;;;4.90;4.40;;;6.40;99.90;;;7.67;93.79;100033.38;4730635;30;20320;-73
2020/12/14 08:37:23;;;;;;;4.37;3.90;;;6.50;99.90;;;7.65;93.48;100038.94;4730141;30;20256;-72
2020/12/14 08:40:03;;;;;;;4.43;4.00;;;6.60;99.90;;;7.49;94.46;100031.31;4730253;30;20794;-72
2020/12/14 08:42:30;;;;;;;5.30;3.97;;;6.60;99.90;;;7.47;94.65;100034.16;4730198;30;20252;-72
2020/12/14 08:45:11;;;;;;;5.67;4.30;;;6.50;99.90;;;7.44;94.33;100039.94;4730402;30;20300;-74
2020/12/14 08:47:42;;;;;;;5.33;4.10;;;6.50;99.90;;;7.29;95.35;100039.28;4730248;30;20331;-60
2020/12/14 08:50:13;;;;;;;4.57;4.07;;;6.50;99.90;;;7.50;95.23;100042.84;4730085;30;20212;-62
2020/12/14 08:52:41;;;;;;;4.83;4.33;;;6.50;99.90;;;7.76;93.54;100038.38;4730089;30;20283;-62
2020/12/14 08:55:08;;;;;;;5.10;4.60;;;6.60;99.90;;;7.85;92.27;100036.28;4730111;30;20296;-61
2020/12/14 08:57:39;;;;;;;5.13;4.63;;;6.70;99.90;;;7.51;93.60;100047.19;4730277;30;20279;-61
2020/12/14 09:00:10;;;;;;;5.07;4.37;;;6.70;99.90;;;7.26;95.91;100045.03;4730184;30;20311;-63
2020/12/14 09:02:39;;;;;;;6.10;5.10;;;6.60;99.90;;;7.39;95.92;100050.44;4730040;30;20193;-61
2020/12/14 09:05:18;;;;;;;5.40;4.70;;;6.50;99.90;;;7.43;95.62;100035.63;4730102;30;20266;-61
2020/12/14 09:07:47;;;;;;;5.77;5.07;;;6.50;99.90;;;7.65;94.54;100048.84;4730095;30;20224;-60
2020/12/14 09:10:19;;;;;;;6.50;5.17;;;6.60;99.90;;;7.72;93.80;100036.28;4730234;30;20220;-60
2020/12/14 09:12:46;;;;;;;4.97;4.33;;;6.70;99.90;;;7.92;92.47;100032.59;4729573;30;20205;-63
2020/12/14 09:15:31;;;;;;;5.17;4.67;;;6.80;99.90;;;7.76;93.42;100033.00;4733343;30;20254;-62
2020/12/14 09:18:03;;;;;;;5.10;4.60;;;6.80;99.90;;;7.86;93.41;100032.59;4733080;30;20581;-59
2020/12/14 09:20:31;;;;;;;4.90;4.40;;;6.90;99.90;;;7.85;93.35;100039.81;4733618;30;20223;-61
2020/12/14 09:23:00;;;;;;;5.77;4.50;;;6.90;99.90;;;8.19;92.33;100041.47;4733292;30;20761;-61
2020/12/14 09:25:28;;;;;;;6.23;5.00;;;7.00;99.90;;;8.32;91.74;100038.81;4733239;30;20595;-62
2020/12/14 09:27:55;;;;;;;5.78;5.18;;;7.20;99.90;;;8.59;90.60;100027.00;4732483;30;20541;-60
2020/12/14 09:30:23;;;;;;;5.30;4.60;;;7.30;99.90;;;8.84;88.30;100027.97;4732971;30;20710;-61
2020/12/14 09:32:50;;;;;;;5.20;4.30;;;7.50;99.90;;;8.74;88.61;100032.13;4733351;30;20305;-60
2020/12/14 09:35:17;;;;;;;5.07;4.53;;;7.60;99.90;;;8.80;87.32;100031.25;4733307;30;20598;-64
2020/12/14 09:37:45;;;;;;;4.90;4.43;;;7.70;99.90;;;8.74;87.64;100024.06;4733307;30;20303;-63
2020/12/14 09:40:13;;;;;;;4.70;4.23;;;7.70;99.90;;;8.70;87.02;100026.34;4733541;30;20243;-62
2020/12/14 09:42:40;;;;;;;5.30;4.37;;;7.70;99.90;;;8.61;88.19;100024.91;4732932;30;20275;-61
2020/12/14 09:45:08;;;;;;;5.27;4.50;;;7.60;99.90;;;8.83;86.72;100023.63;4732970;30;20256;-60
2020/12/14 09:47:35;;;;;;;7.47;4.27;;;7.70;99.90;;;8.72;87.12;100018.91;4732385;30;20608;-65
2020/12/14 09:50:03;;;;;;;5.10;4.60;;;7.70;99.90;;;8.91;86.31;100027.94;4733093;30;20253;-64
2020/12/14 09:52:31;;;;;;;5.17;4.50;;;7.70;99.90;;;8.84;86.32;100014.53;4732991;30;20357;-62
2020/12/14 09:54:58;;;;;;;5.30;4.13;;;7.80;99.90;;;8.68;87.22;100017.66;4732541;30;20386;-64
2020/12/14 09:57:26;;;;;;;9.00;5.97;;;7.80;99.90;;;8.70;87.76;100022.81;4733023;30;20216;-61
2020/12/14 09:59:54;;;;;;;5.07;4.10;;;7.70;99.90;;;9.06;86.61;100020.44;4732982;30;20215;-62
2020/12/14 10:02:21;;;;;;;5.27;4.40;;;7.80;99.90;;;9.11;85.90;100012.56;4732981;30;20291;-63
2020/12/14 10:04:49;;;;;;;5.40;4.20;;;7.90;99.90;;;9.06;87.18;100015.91;4732909;30;20303;-64
2020/12/14 10:07:16;;;;;;;5.20;4.70;;;8.00;99.90;;;8.71;88.54;100027.19;4732701;30;20224;-62
2020/12/14 10:09:43;;;;;;;5.70;4.20;;;7.90;99.90;;;8.79;88.79;100016.19;4732979;30;20593;-61
2020/12/14 10:12:11;;;;;;;5.33;4.43;;;7.90;99.90;;;8.90;87.73;100021.72;4732271;30;20316;-60
2020/12/14 10:14:39;;;;;;;6.00;4.43;;;7.90;99.90;;;8.88;87.23;100017.63;4732826;30;20213;-64
2020/12/14 10:17:06;;;;;;;4.63;4.17;;;7.90;99.90;;;8.75;87.50;100018.47;4732452;30;20388;-65
2020/12/14 10:19:33;;;;;;;5.60;4.50;;;7.90;99.90;;;9.00;86.91;100010.56;4732890;30;20307;-62
2020/12/14 10:22:01;;;;;;;5.40;4.63;;;7.90;99.90;;;8.93;86.69;100015.13;4732216;30;20750;-62
2020/12/14 10:24:28;;;;;;;5.27;4.77;;;8.00;99.90;;;8.90;86.80;100018.22;4732471;30;20284;-66
2020/12/14 10:26:56;;;;;;;5.20;4.13;;;8.00;99.90;;;9.05;86.99;100000.78;4731842;30;20301;-62